Terminal Aerodrome Forecast
Issued by NWS

Current Version | Previous Version | Graphics & Text | Print | Product List | Glossary On
Versions: 1 2 3 4 5 6 7 8 9 10 11 12 13 14 15 16 17
000
FTUS41 KPBZ 210805 AAA
TAFMGW
TAF AMD
KMGW 210805Z 2108/2206 00000KT 3SM BR SKC
     FM210900 00000KT 2SM BR SCT003
      TEMPO 2109/2112 1/4SM FG VV002
     FM211330 VRB03KT P6SM SCT040=

USA.gov is the U.S. government's official web portal to all federal, state and local government web resources and services.